Time;durP1;ratioP1;P1;durP2;ratioP2;P2;SDS_P1;SDS_P2;PMS_P1;PMS_P2;Temp;Humidity;BMP_temperature;BMP_pressure;BME280_temperature;BME280_humidity;BME280_pressure;Samples;Min_cycle;Max_cycle;Signal;HPM_P1;HPM_P2
2023/09/27 00:00:49;;;;;;;5.17;3.47;;;;;;;;;;5021683;28;20978;-54
2023/09/27 00:03:17;;;;;;;5.30;3.60;;;;;;;;;;5029326;28;20455;-54
2023/09/27 00:05:45;;;;;;;6.23;3.40;;;;;;;;;;5033008;28;20478;-53
2023/09/27 00:08:12;;;;;;;6.83;3.47;;;;;;;;;;5021450;28;20447;-55
2023/09/27 00:10:40;;;;;;;5.37;3.40;;;;;;;;;;5023376;28;20470;-53
2023/09/27 00:13:07;;;;;;;5.10;3.40;;;;;;;;;;5031214;28;20446;-54
2023/09/27 00:15:34;;;;;;;5.97;4.77;;;;;;;;;;5030049;28;20521;-55
2023/09/27 00:18:02;;;;;;;4.60;2.83;;;;;;;;;;5028526;28;20969;-54
2023/09/27 00:20:32;;;;;;;5.20;3.50;;;;;;;;;;5025049;28;21015;-53
2023/09/27 00:23:00;;;;;;;6.40;4.10;;;;;;;;;;5029384;28;20441;-54
2023/09/27 00:25:27;;;;;;;4.80;3.50;;;;;;;;;;5032793;28;21039;-53
2023/09/27 00:27:55;;;;;;;6.17;3.63;;;;;;;;;;5028268;28;20442;-53
2023/09/27 00:30:22;;;;;;;5.00;3.60;;;;;;;;;;5015259;28;20477;-53
2023/09/27 00:32:49;;;;;;;7.90;3.23;;;;;;;;;;5026690;28;20480;-56
2023/09/27 00:35:21;;;;;;;6.30;3.17;;;;;;;;;;5011025;28;20446;-53
2023/09/27 00:37:51;;;;;;;5.43;3.00;;;;;;;;;;4997524;28;20483;-54
2023/09/27 00:40:21;;;;;;;5.37;3.30;;;;;;;;;;4999929;28;20485;-53
2023/09/27 00:42:49;;;;;;;5.70;3.20;;;;;;;;;;5011378;28;20482;-54
2023/09/27 00:45:18;;;;;;;9.40;3.77;;;;;;;;;;5024471;28;20454;-55
2023/09/27 00:47:46;;;;;;;5.13;3.57;;;;;;;;;;5022450;28;20482;-55
2023/09/27 00:50:13;;;;;;;6.63;3.47;;;;;;;;;;5030554;28;20473;-53
2023/09/27 00:52:41;;;;;;;5.10;3.30;;;;;;;;;;5032657;28;20997;-55
2023/09/27 00:55:12;;;;;;;4.50;3.07;;;;;;;;;;5022779;28;20454;-55
2023/09/27 00:57:39;;;;;;;8.27;3.50;;;;;;;;;;5022236;28;20544;-55
2023/09/27 01:00:10;;;;;;;5.63;3.27;;;;;;;;;;5029799;28;20470;-56
2023/09/27 01:02:37;;;;;;;5.87;3.40;;;;;;;;;;5027564;28;20530;-53
2023/09/27 01:05:06;;;;;;;7.03;3.00;;;;;;;;;;5023868;28;20538;-53
2023/09/27 01:07:33;;;;;;;7.53;3.47;;;;;;;;;;5023936;28;20446;-54
2023/09/27 01:10:00;;;;;;;10.90;3.60;;;;;;;;;;5008943;28;20478;-55
2023/09/27 01:12:29;;;;;;;6.30;3.03;;;;;;;;;;5032049;28;20457;-53
2023/09/27 01:14:57;;;;;;;4.30;3.53;;;;;;;;;;5015171;28;20860;-54
2023/09/27 01:17:24;;;;;;;4.77;2.93;;;;;;;;;;5015015;28;20883;-53
2023/09/27 01:19:52;;;;;;;7.30;2.73;;;;;;;;;;5025435;28;20592;-54
2023/09/27 01:22:19;;;;;;;5.27;3.00;;;;;;;;;;5031754;28;21016;-54
2023/09/27 01:24:48;;;;;;;4.50;2.83;;;;;;;;;;5031606;28;20438;-53
2023/09/27 01:27:15;;;;;;;3.87;3.40;;;;;;;;;;5027855;28;20482;-53
2023/09/27 01:29:43;;;;;;;5.10;3.17;;;;;;;;;;5028080;28;20489;-55
2023/09/27 01:32:10;;;;;;;6.70;3.10;;;;;;;;;;5027031;28;20959;-55
2023/09/27 01:34:38;;;;;;;6.13;3.53;;;;;;;;;;5001704;28;20803;-53
2023/09/27 01:37:07;;;;;;;4.30;2.90;;;;;;;;;;5002007;28;20463;-55
2023/09/27 01:39:34;;;;;;;5.27;3.67;;;;;;;;;;5004178;28;20515;-55
2023/09/27 01:42:04;;;;;;;5.73;2.97;;;;;;;;;;4999099;28;20452;-55
2023/09/27 01:44:31;;;;;;;4.17;2.90;;;;;;;;;;5009103;28;20512;-54
2023/09/27 01:46:58;;;;;;;7.10;3.53;;;;;;;;;;5023188;28;20478;-54
2023/09/27 01:49:26;;;;;;;5.53;3.37;;;;;;;;;;5024780;28;20470;-56
2023/09/27 01:51:54;;;;;;;3.90;2.87;;;;;;;;;;5031335;28;20446;-53
2023/09/27 01:54:21;;;;;;;4.60;2.80;;;;;;;;;;5022929;28;20454;-54
2023/09/27 01:56:48;;;;;;;6.57;4.07;;;;;;;;;;5024516;28;20471;-53
2023/09/27 01:59:17;;;;;;;4.80;2.90;;;;;;;;;;5030431;28;20501;-54
2023/09/27 02:01:44;;;;;;;6.57;3.50;;;;;;;;;;5028214;28;20450;-53
2023/09/27 02:04:12;;;;;;;6.10;3.80;;;;;;;;;;5025438;28;20487;-54
2023/09/27 02:06:39;;;;;;;5.67;3.70;;;;;;;;;;5025519;28;20470;-54
2023/09/27 02:09:06;;;;;;;6.17;4.03;;;;;;;;;;5025025;28;20466;-53
2023/09/27 02:11:33;;;;;;;4.20;3.33;;;;;;;;;;5020201;28;20458;-57
2023/09/27 02:14:03;;;;;;;5.27;3.23;;;;;;;;;;5022451;28;20522;-55
2023/09/27 02:16:33;;;;;;;7.57;4.67;;;;;;;;;;5004071;28;20443;-54
2023/09/27 02:19:04;;;;;;;6.23;3.70;;;;;;;;;;5015688;28;20900;-53
2023/09/27 02:21:31;;;;;;;6.37;3.30;;;;;;;;;;5007508;28;20500;-53
2023/09/27 02:23:58;;;;;;;7.73;3.80;;;;;;;;;;5022639;28;20501;-55
2023/09/27 02:26:25;;;;;;;4.10;3.20;;;;;;;;;;5026166;28;20482;-53
2023/09/27 02:28:53;;;;;;;4.70;3.23;;;;;;;;;;5021191;28;20468;-55
2023/09/27 02:31:20;;;;;;;4.83;3.13;;;;;;;;;;5025769;28;20496;-54
2023/09/27 02:33:49;;;;;;;4.63;4.10;;;;;;;;;;5017800;28;20452;-53
2023/09/27 02:36:16;;;;;;;6.40;3.60;;;;;;;;;;4999500;28;20439;-53
2023/09/27 02:38:43;;;;;;;6.00;3.30;;;;;;;;;;4998370;28;20447;-53
2023/09/27 02:41:10;;;;;;;5.43;2.80;;;;;;;;;;5001959;28;20463;-54
2023/09/27 02:43:40;;;;;;;5.37;3.80;;;;;;;;;;5023673;28;20533;-55
2023/09/27 02:46:07;;;;;;;4.60;2.77;;;;;;;;;;5025298;28;20477;-54
2023/09/27 02:48:35;;;;;;;6.53;3.47;;;;;;;;;;5029176;28;20528;-53
2023/09/27 02:51:03;;;;;;;7.70;2.80;;;;;;;;;;5027229;28;20497;-54
2023/09/27 02:53:31;;;;;;;7.00;4.23;;;;;;;;;;5029654;28;20512;-54
2023/09/27 02:55:58;;;;;;;4.80;3.37;;;;;;;;;;5026191;28;20531;-55
2023/09/27 02:58:27;;;;;;;4.87;2.73;;;;;;;;;;5027831;28;20796;-53
2023/09/27 03:00:54;;;;;;;6.87;3.80;;;;;;;;;;5027801;28;20497;-54
2023/09/27 03:03:21;;;;;;;5.70;3.80;;;;;;;;;;5029952;28;20438;-54
2023/09/27 03:05:49;;;;;;;5.90;3.00;;;;;;;;;;5026933;28;20532;-54
2023/09/27 03:08:18;;;;;;;6.07;3.13;;;;;;;;;;5030184;28;20508;-53
2023/09/27 03:10:45;;;;;;;8.70;3.33;;;;;;;;;;5028741;28;20573;-54
2023/09/27 03:13:12;;;;;;;5.27;3.47;;;;;;;;;;5026338;28;21041;-54
2023/09/27 03:15:40;;;;;;;6.53;3.60;;;;;;;;;;5025172;28;20476;-55
2023/09/27 03:18:07;;;;;;;10.10;3.90;;;;;;;;;;5027864;28;20577;-55
2023/09/27 03:20:36;;;;;;;6.30;3.63;;;;;;;;;;5028640;28;20501;-55
2023/09/27 03:23:03;;;;;;;4.70;3.60;;;;;;;;;;5023459;28;20532;-56
2023/09/27 03:25:32;;;;;;;5.53;3.57;;;;;;;;;;5019616;28;20500;-53
2023/09/27 03:27:59;;;;;;;3.90;2.60;;;;;;;;;;5020274;28;20477;-55
2023/09/27 03:30:26;;;;;;;9.17;3.80;;;;;;;;;;5027158;28;20462;-53
2023/09/27 03:32:53;;;;;;;5.63;3.70;;;;;;;;;;5029168;28;20446;-54
2023/09/27 03:35:21;;;;;;;5.70;2.73;;;;;;;;;;5005305;28;20442;-53
2023/09/27 03:37:48;;;;;;;5.20;3.67;;;;;;;;;;5004156;28;20452;-53
2023/09/27 03:40:15;;;;;;;4.70;3.80;;;;;;;;;;4997644;28;20872;-55
2023/09/27 03:42:45;;;;;;;5.33;3.63;;;;;;;;;;5010689;28;20512;-54
2023/09/27 03:45:14;;;;;;;6.90;2.77;;;;;;;;;;5023026;28;20450;-53
2023/09/27 03:47:42;;;;;;;5.07;3.10;;;;;;;;;;5021115;28;21256;-53
2023/09/27 03:50:12;;;;;;;8.83;3.73;;;;;;;;;;5029857;28;20532;-54
2023/09/27 03:52:40;;;;;;;6.87;3.20;;;;;;;;;;5031995;28;20472;-55
2023/09/27 03:55:08;;;;;;;5.57;3.37;;;;;;;;;;5028771;28;20939;-54
2023/09/27 03:57:35;;;;;;;6.23;3.60;;;;;;;;;;5024475;28;20447;-54
2023/09/27 04:00:12;;;;;;;5.00;3.37;;;;;;;;;;5019010;28;20463;-53
2023/09/27 04:02:39;;;;;;;5.50;3.43;;;;;;;;;;5024144;28;20540;-54
2023/09/27 04:05:07;;;;;;;8.03;3.17;;;;;;;;;;5032463;28;20488;-55
2023/09/27 04:07:34;;;;;;;8.13;3.23;;;;;;;;;;5029858;28;20471;-53
2023/09/27 04:10:02;;;;;;;6.10;3.17;;;;;;;;;;5029873;28;20528;-54
2023/09/27 04:12:29;;;;;;;4.50;2.87;;;;;;;;;;5026596;28;20451;-55
2023/09/27 04:14:56;;;;;;;4.67;3.10;;;;;;;;;;5027177;28;20438;-53
2023/09/27 04:17:25;;;;;;;6.90;4.20;;;;;;;;;;5033201;28;20450;-53
2023/09/27 04:19:52;;;;;;;7.60;3.90;;;;;;;;;;5013329;28;20471;-54
2023/09/27 04:22:20;;;;;;;7.30;3.00;;;;;;;;;;5032274;28;20443;-55
2023/09/27 04:24:47;;;;;;;5.30;3.30;;;;;;;;;;5023454;28;20455;-55
2023/09/27 04:27:14;;;;;;;4.33;2.93;;;;;;;;;;5028248;28;20547;-54
2023/09/27 04:29:42;;;;;;;5.90;3.10;;;;;;;;;;5031375;28;20692;-57
2023/09/27 04:32:09;;;;;;;7.20;3.80;;;;;;;;;;5026239;28;20534;-55
2023/09/27 04:34:38;;;;;;;5.30;3.30;;;;;;;;;;5019958;28;20455;-53
2023/09/27 04:37:05;;;;;;;5.17;4.20;;;;;;;;;;5027563;28;20919;-53
2023/09/27 04:39:33;;;;;;;4.27;2.77;;;;;;;;;;5057369;23;20493;-85
2023/09/27 04:42:00;;;;;;;10.10;3.50;;;;;;;;;;5024123;28;20447;-84
2023/09/27 04:44:27;;;;;;;6.27;3.90;;;;;;;;;;5026148;28;20553;-83
2023/09/27 04:46:54;;;;;;;5.27;3.20;;;;;;;;;;5025204;28;20479;-84
2023/09/27 04:49:22;;;;;;;7.40;3.63;;;;;;;;;;5029995;28;20442;-84
2023/09/27 04:51:50;;;;;;;5.07;3.00;;;;;;;;;;5037207;28;20446;-84
2023/09/27 04:54:18;;;;;;;5.40;3.20;;;;;;;;;;5037833;28;20509;-83
2023/09/27 04:56:45;;;;;;;5.07;3.63;;;;;;;;;;5036600;28;20514;-84
2023/09/27 04:59:12;;;;;;;6.10;3.50;;;;;;;;;;5024694;28;20448;-85
2023/09/27 05:01:39;;;;;;;10.23;3.93;;;;;;;;;;5034589;28;20455;-85
2023/09/27 05:04:07;;;;;;;5.20;3.20;;;;;;;;;;5032634;28;20442;-84
2023/09/27 05:06:35;;;;;;;6.47;3.37;;;;;;;;;;5032539;28;20467;-85
2023/09/27 05:09:05;;;;;;;5.53;3.63;;;;;;;;;;5029299;28;20490;-86
2023/09/27 05:11:33;;;;;;;4.80;3.50;;;;;;;;;;5026232;28;20513;-86
2023/09/27 05:14:00;;;;;;;5.37;4.20;;;;;;;;;;5030031;28;20467;-84
2023/09/27 05:16:27;;;;;;;12.60;3.80;;;;;;;;;;5029813;28;20518;-84
2023/09/27 05:18:54;;;;;;;6.40;3.00;;;;;;;;;;5025000;28;20435;-84
2023/09/27 05:21:22;;;;;;;7.43;3.53;;;;;;;;;;5027806;28;21152;-84
2023/09/27 05:23:49;;;;;;;7.87;3.83;;;;;;;;;;5033308;28;20431;-85
2023/09/27 05:26:18;;;;;;;5.40;3.20;;;;;;;;;;5031966;28;20450;-84
2023/09/27 05:28:45;;;;;;;6.27;3.50;;;;;;;;;;5033862;28;20478;-84
2023/09/27 05:31:12;;;;;;;5.90;4.10;;;;;;;;;;5022779;28;20447;-84
2023/09/27 05:33:40;;;;;;;6.27;4.20;;;;;;;;;;5029655;28;20440;-85
2023/09/27 05:36:07;;;;;;;7.90;4.10;;;;;;;;;;5028262;28;20865;-85
2023/09/27 05:38:34;;;;;;;5.97;4.00;;;;;;;;;;5029191;28;20469;-86
2023/09/27 05:41:02;;;;;;;10.37;3.80;;;;;;;;;;5027202;28;20482;-86
2023/09/27 05:43:30;;;;;;;5.20;3.17;;;;;;;;;;5028367;28;20967;-86
2023/09/27 05:45:58;;;;;;;10.43;3.70;;;;;;;;;;5029151;28;20498;-86
2023/09/27 05:48:25;;;;;;;5.53;3.03;;;;;;;;;;5030220;28;20473;-86
2023/09/27 05:50:52;;;;;;;4.67;3.30;;;;;;;;;;5025490;28;20439;-85
2023/09/27 05:53:19;;;;;;;7.70;4.30;;;;;;;;;;5034289;28;20473;-83
2023/09/27 05:55:48;;;;;;;5.60;3.30;;;;;;;;;;5029790;28;20472;-86
2023/09/27 05:58:15;;;;;;;9.03;4.60;;;;;;;;;;5040997;28;20455;-88
2023/09/27 06:00:47;;;;;;;13.67;5.13;;;;;;;;;;5015772;28;20962;-86
2023/09/27 06:03:13;;;;;;;7.47;4.03;;;;;;;;;;5025515;28;20919;-87
2023/09/27 06:05:41;;;;;;;10.30;5.20;;;;;;;;;;5029900;28;20471;-86
2023/09/27 06:08:08;;;;;;;6.67;3.87;;;;;;;;;;5027504;28;20471;-86
2023/09/27 06:10:35;;;;;;;7.73;4.00;;;;;;;;;;5025416;28;20498;-86
2023/09/27 06:13:03;;;;;;;5.23;4.10;;;;;;;;;;5021749;28;20502;-86
2023/09/27 06:15:34;;;;;;;8.10;4.77;;;;;;;;;;5028050;28;20454;-86
2023/09/27 06:18:03;;;;;;;6.53;4.30;;;;;;;;;;5024867;28;20466;-85
2023/09/27 06:20:30;;;;;;;7.67;3.73;;;;;;;;;;5027006;28;20443;-86
2023/09/27 06:23:03;;;;;;;4.87;3.63;;;;;;;;;;5026945;28;20501;-86
2023/09/27 06:25:30;;;;;;;8.90;3.70;;;;;;;;;;5032112;28;20509;-86
2023/09/27 06:28:00;;;;;;;4.77;3.93;;;;;;;;;;5026876;28;20514;-86
2023/09/27 06:30:27;;;;;;;9.73;4.10;;;;;;;;;;5031489;28;20458;-86
2023/09/27 06:32:55;;;;;;;6.90;3.87;;;;;;;;;;5033605;28;20469;-85
2023/09/27 06:35:24;;;;;;;7.93;4.60;;;;;;;;;;5029244;28;20462;-85
2023/09/27 06:37:51;;;;;;;7.17;4.80;;;;;;;;;;5024535;28;20525;-84
2023/09/27 06:40:22;;;;;;;5.77;4.07;;;;;;;;;;5026296;28;20446;-86
2023/09/27 06:42:49;;;;;;;6.57;4.10;;;;;;;;;;5022924;28;20439;-86
2023/09/27 06:45:16;;;;;;;7.90;5.73;;;;;;;;;;5026139;28;20446;-86
2023/09/27 06:47:45;;;;;;;7.00;4.47;;;;;;;;;;5022330;28;20471;-85
2023/09/27 06:50:13;;;;;;;7.50;4.10;;;;;;;;;;5022807;28;20446;-87
2023/09/27 06:52:41;;;;;;;13.70;4.67;;;;;;;;;;5031018;28;20461;-86
2023/09/27 06:55:11;;;;;;;6.57;4.13;;;;;;;;;;5028042;28;20466;-86
2023/09/27 06:57:39;;;;;;;9.53;5.50;;;;;;;;;;5024342;28;20451;-86
2023/09/27 07:00:12;;;;;;;7.10;5.87;;;;;;;;;;5026044;28;20516;-86
2023/09/27 07:02:42;;;;;;;12.10;7.80;;;;;;;;;;5020622;28;20485;-85
2023/09/27 07:05:11;;;;;;;10.13;7.23;;;;;;;;;;5018644;28;20859;-86
2023/09/27 07:07:38;;;;;;;9.20;6.90;;;;;;;;;;5023790;28;20490;-86
2023/09/27 07:10:07;;;;;;;9.17;7.03;;;;;;;;;;5023677;28;20438;-87
2023/09/27 07:12:35;;;;;;;7.83;6.10;;;;;;;;;;5028755;28;20442;-86
2023/09/27 07:15:04;;;;;;;13.00;6.70;;;;;;;;;;5025781;28;20467;-86
2023/09/27 07:17:32;;;;;;;7.63;5.77;;;;;;;;;;5033292;28;20501;-86
2023/09/27 07:19:59;;;;;;;9.53;6.50;;;;;;;;;;5025432;28;20482;-87
2023/09/27 07:22:28;;;;;;;7.60;5.10;;;;;;;;;;5022620;28;20508;-86
2023/09/27 07:24:59;;;;;;;7.30;4.27;;;;;;;;;;5028411;28;20965;-87
2023/09/27 07:27:33;;;;;;;5.50;3.43;;;;;;;;;;5034058;28;20978;-86
2023/09/27 07:30:00;;;;;;;4.80;3.23;;;;;;;;;;5041112;28;20477;-86
2023/09/27 07:32:30;;;;;;;5.83;4.00;;;;;;;;;;5045816;28;20534;-87
2023/09/27 07:34:58;;;;;;;8.50;4.50;;;;;;;;;;5025324;28;21113;-87
2023/09/27 07:37:26;;;;;;;9.17;4.27;;;;;;;;;;5027570;28;20454;-86
2023/09/27 07:39:53;;;;;;;5.23;4.10;;;;;;;;;;5032515;28;20462;-86
2023/09/27 07:42:20;;;;;;;7.20;4.80;;;;;;;;;;5032607;28;20454;-87
2023/09/27 07:44:49;;;;;;;6.40;4.43;;;;;;;;;;5031950;28;20469;-86
2023/09/27 07:47:16;;;;;;;7.23;4.47;;;;;;;;;;5034427;28;20515;-87
2023/09/27 07:49:44;;;;;;;10.80;5.67;;;;;;;;;;5036221;28;20446;-87
2023/09/27 07:52:11;;;;;;;9.23;5.40;;;;;;;;;;5034561;28;20445;-87
2023/09/27 07:54:38;;;;;;;6.33;4.40;;;;;;;;;;5035324;28;20466;-86
2023/09/27 07:57:06;;;;;;;8.43;5.23;;;;;;;;;;5030106;28;20443;-86
2023/09/27 07:59:43;;;;;;;5.87;4.30;;;;;;;;;;5037443;28;20442;-86
2023/09/27 08:02:18;;;;;;;5.73;4.37;;;;;;;;;;5031033;28;20454;-85
2023/09/27 08:04:45;;;;;;;6.90;4.60;;;;;;;;;;5026555;28;20825;-86
2023/09/27 08:07:13;;;;;;;6.70;4.17;;;;;;;;;;5037987;28;20814;-86
2023/09/27 08:09:42;;;;;;;6.53;5.13;;;;;;;;;;5034160;28;20491;-86
2023/09/27 08:12:09;;;;;;;7.43;4.80;;;;;;;;;;5029028;28;20451;-85
2023/09/27 08:14:36;;;;;;;7.10;4.27;;;;;;;;;;5026663;28;20990;-86
2023/09/27 08:17:04;;;;;;;5.33;3.80;;;;;;;;;;5031321;28;20483;-85
2023/09/27 08:19:33;;;;;;;7.83;4.70;;;;;;;;;;5028823;28;20447;-86
2023/09/27 08:22:00;;;;;;;6.17;4.20;;;;;;;;;;5029975;28;20882;-85
2023/09/27 08:24:28;;;;;;;10.17;4.50;;;;;;;;;;5032338;28;20524;-85
2023/09/27 08:26:56;;;;;;;7.97;4.17;;;;;;;;;;5032300;28;20848;-86
2023/09/27 08:29:25;;;;;;;11.23;4.80;;;;;;;;;;5036371;28;20474;-86
2023/09/27 08:31:53;;;;;;;7.63;4.60;;;;;;;;;;5030433;28;20486;-86
2023/09/27 08:34:20;;;;;;;6.83;5.20;;;;;;;;;;5027116;28;20467;-85
2023/09/27 08:36:49;;;;;;;10.60;4.83;;;;;;;;;;5036393;28;20496;-85
2023/09/27 08:39:16;;;;;;;9.90;5.43;;;;;;;;;;5032212;28;20454;-86
2023/09/27 08:41:43;;;;;;;5.57;4.43;;;;;;;;;;5023061;28;20485;-85
2023/09/27 08:44:11;;;;;;;6.00;4.27;;;;;;;;;;5034820;28;20512;-85
2023/09/27 08:46:39;;;;;;;10.17;4.53;;;;;;;;;;5032278;28;20562;-86
2023/09/27 08:49:08;;;;;;;7.80;5.07;;;;;;;;;;5026173;28;20474;-85
2023/09/27 08:51:35;;;;;;;8.30;5.40;;;;;;;;;;5017999;28;20459;-85
2023/09/27 08:54:04;;;;;;;8.20;5.17;;;;;;;;;;5035830;28;20451;-85
2023/09/27 08:56:32;;;;;;;9.53;5.20;;;;;;;;;;5029385;28;20446;-85
2023/09/27 08:58:59;;;;;;;7.33;4.67;;;;;;;;;;5031858;28;20851;-85
2023/09/27 09:01:28;;;;;;;7.67;4.80;;;;;;;;;;5028639;28;20435;-86
2023/09/27 09:03:55;;;;;;;7.23;5.00;;;;;;;;;;5023100;28;20873;-86
2023/09/27 09:06:23;;;;;;;7.27;5.07;;;;;;;;;;5048690;28;20514;-86
2023/09/27 09:08:51;;;;;;;7.90;4.97;;;;;;;;;;5035787;28;20489;-85
2023/09/27 09:11:20;;;;;;;7.40;5.00;;;;;;;;;;5032944;28;20450;-85
2023/09/27 09:14:03;;;;;;;7.43;4.80;;;;;;;;;;5033198;28;20458;-85
2023/09/27 09:16:39;;;;;;;9.17;5.70;;;;;;;;;;5028733;28;20482;-85
2023/09/27 09:19:19;;;;;;;7.40;4.90;;;;;;;;;;5027299;28;20529;-85
2023/09/27 09:21:47;;;;;;;5.90;4.60;;;;;;;;;;5024946;28;20450;-85
2023/09/27 09:24:20;;;;;;;7.30;4.73;;;;;;;;;;5016836;28;20558;-85
2023/09/27 09:26:49;;;;;;;6.03;4.40;;;;;;;;;;5024547;28;20505;-85
2023/09/27 09:29:18;;;;;;;8.13;4.70;;;;;;;;;;5032493;28;20922;-85
2023/09/27 09:31:53;;;;;;;5.53;3.77;;;;;;;;;;5026839;28;20835;-85
2023/09/27 09:34:20;;;;;;;6.00;4.20;;;;;;;;;;5026915;28;20835;-85
2023/09/27 09:36:48;;;;;;;6.27;3.77;;;;;;;;;;5022584;28;20461;-85
2023/09/27 09:39:17;;;;;;;7.60;4.90;;;;;;;;;;5029237;28;20451;-84
2023/09/27 09:41:45;;;;;;;7.87;4.67;;;;;;;;;;5023659;28;20961;-85
2023/09/27 09:44:21;;;;;;;6.40;3.93;;;;;;;;;;5037283;28;20477;-85
2023/09/27 09:46:48;;;;;;;7.00;4.57;;;;;;;;;;5027238;28;21158;-84
2023/09/27 09:49:16;;;;;;;9.00;4.97;;;;;;;;;;5020403;28;20541;-84
2023/09/27 09:51:47;;;;;;;12.10;4.93;;;;;;;;;;5029468;28;20459;-85
2023/09/27 09:54:19;;;;;;;6.40;4.87;;;;;;;;;;5032070;28;20882;-85
2023/09/27 09:56:49;;;;;;;5.60;3.80;;;;;;;;;;5034927;28;20538;-84
2023/09/27 09:59:19;;;;;;;11.10;4.67;;;;;;;;;;5032585;28;20443;-84
2023/09/27 10:01:48;;;;;;;9.20;4.83;;;;;;;;;;5026337;28;21001;-84
2023/09/27 10:04:16;;;;;;;5.20;4.23;;;;;;;;;;5026637;28;20470;-85
2023/09/27 10:06:44;;;;;;;10.70;4.93;;;;;;;;;;5025654;28;20491;-84
2023/09/27 10:09:13;;;;;;;8.30;4.27;;;;;;;;;;5031213;28;20548;-84
2023/09/27 10:11:41;;;;;;;4.90;3.50;;;;;;;;;;5022569;28;20669;-84
2023/09/27 10:14:11;;;;;;;9.20;4.17;;;;;;;;;;5022196;28;20448;-84
2023/09/27 10:16:38;;;;;;;6.90;3.60;;;;;;;;;;5025280;28;20566;-84
2023/09/27 10:19:07;;;;;;;7.00;3.83;;;;;;;;;;5019518;28;21002;-83
2023/09/27 10:21:34;;;;;;;7.00;3.90;;;;;;;;;;5025088;28;20447;-84
2023/09/27 10:24:04;;;;;;;19.03;5.30;;;;;;;;;;5024220;28;20447;-84
2023/09/27 10:26:31;;;;;;;9.33;4.17;;;;;;;;;;5025416;28;20447;-83
2023/09/27 10:29:13;;;;;;;9.80;4.43;;;;;;;;;;5033700;28;20480;-83
2023/09/27 10:31:56;;;;;;;11.37;5.10;;;;;;;;;;5030749;28;20596;-83
2023/09/27 10:34:43;;;;;;;8.10;4.07;;;;;;;;;;5014247;28;20544;-84
2023/09/27 10:37:12;;;;;;;9.50;4.90;;;;;;;;;;5019590;28;20446;-83
2023/09/27 10:39:40;;;;;;;7.83;4.03;;;;;;;;;;5044708;28;20426;-84
2023/09/27 10:42:08;;;;;;;7.83;3.87;;;;;;;;;;5034565;28;20466;-83
2023/09/27 10:44:36;;;;;;;11.37;4.13;;;;;;;;;;5037466;28;20446;-83
2023/09/27 10:47:04;;;;;;;7.40;4.50;;;;;;;;;;5036981;28;20942;-83
2023/09/27 10:49:38;;;;;;;7.33;4.20;;;;;;;;;;5035206;28;20470;-83
2023/09/27 10:52:15;;;;;;;6.53;4.37;;;;;;;;;;5027893;28;20443;-83
2023/09/27 10:54:43;;;;;;;6.93;4.00;;;;;;;;;;5031246;28;20497;-85
2023/09/27 10:57:12;;;;;;;5.43;4.37;;;;;;;;;;5019148;28;20443;-85
2023/09/27 10:59:39;;;;;;;5.70;3.97;;;;;;;;;;5030365;28;20449;-85
2023/09/27 11:02:06;;;;;;;7.83;4.30;;;;;;;;;;5030407;28;20529;-84
2023/09/27 11:04:36;;;;;;;9.30;5.00;;;;;;;;;;5034388;28;20474;-84
2023/09/27 11:07:04;;;;;;;7.07;3.93;;;;;;;;;;5027788;28;20527;-85
2023/09/27 11:09:33;;;;;;;8.63;4.23;;;;;;;;;;5017869;28;20519;-85
2023/09/27 11:12:00;;;;;;;7.23;3.97;;;;;;;;;;5024616;28;20455;-85
2023/09/27 11:14:28;;;;;;;7.40;4.47;;;;;;;;;;5024535;28;20539;-85
2023/09/27 11:16:56;;;;;;;8.00;4.10;;;;;;;;;;5033048;28;20537;-84
2023/09/27 11:19:30;;;;;;;7.40;4.60;;;;;;;;;;5026326;28;20439;-84
2023/09/27 11:21:57;;;;;;;6.70;4.43;;;;;;;;;;5026529;28;20819;-85
2023/09/27 11:24:25;;;;;;;5.57;4.03;;;;;;;;;;5032631;28;20536;-85
2023/09/27 11:26:53;;;;;;;6.77;4.67;;;;;;;;;;5017866;28;20474;-86
2023/09/27 11:29:26;;;;;;;5.70;3.47;;;;;;;;;;5031914;28;20536;-86
2023/09/27 11:31:57;;;;;;;7.97;3.73;;;;;;;;;;5017649;28;20919;-86
2023/09/27 11:34:24;;;;;;;6.20;4.00;;;;;;;;;;5035574;28;20490;-86
2023/09/27 11:36:52;;;;;;;5.33;3.83;;;;;;;;;;5020255;28;20938;-86
2023/09/27 11:39:20;;;;;;;7.40;4.20;;;;;;;;;;5023101;28;20467;-86
2023/09/27 11:41:48;;;;;;;7.27;4.00;;;;;;;;;;5016121;28;20455;-86
2023/09/27 11:44:20;;;;;;;6.67;4.17;;;;;;;;;;5019110;28;20487;-86
2023/09/27 11:46:49;;;;;;;8.83;4.40;;;;;;;;;;5022248;28;20446;-86
2023/09/27 11:49:17;;;;;;;7.50;3.90;;;;;;;;;;5034397;28;20541;-87
2023/09/27 11:51:44;;;;;;;7.80;3.90;;;;;;;;;;5023149;28;20464;-87
2023/09/27 11:54:12;;;;;;;7.20;3.87;;;;;;;;;;5016856;28;20439;-86
2023/09/27 11:56:40;;;;;;;6.87;3.67;;;;;;;;;;5025531;28;20514;-87
2023/09/27 11:59:10;;;;;;;8.13;6.43;;;;;;;;;;5018226;28;20509;-86
2023/09/27 12:01:39;;;;;;;9.30;3.63;;;;;;;;;;5025261;28;20584;-86
2023/09/27 12:04:06;;;;;;;6.10;4.23;;;;;;;;;;5033916;28;20450;-86
2023/09/27 12:06:33;;;;;;;6.63;3.77;;;;;;;;;;5025033;28;20451;-87
2023/09/27 12:09:01;;;;;;;6.30;3.87;;;;;;;;;;5019962;28;20478;-86
2023/09/27 12:11:29;;;;;;;8.10;4.37;;;;;;;;;;5030927;28;20542;-87
2023/09/27 12:13:56;;;;;;;7.10;3.80;;;;;;;;;;5046088;28;20454;-87
2023/09/27 12:16:23;;;;;;;6.90;4.33;;;;;;;;;;5043590;28;20461;-86
2023/09/27 12:18:52;;;;;;;8.63;4.60;;;;;;;;;;5040586;28;20442;-86
2023/09/27 12:21:20;;;;;;;7.47;4.50;;;;;;;;;;5030760;28;20517;-86
2023/09/27 12:23:47;;;;;;;6.30;4.00;;;;;;;;;;5026492;28;20455;-87
2023/09/27 12:26:14;;;;;;;7.10;4.33;;;;;;;;;;5031261;28;20463;-87
2023/09/27 12:28:42;;;;;;;11.97;4.03;;;;;;;;;;5038778;28;20438;-86
2023/09/27 12:31:11;;;;;;;7.70;4.03;;;;;;;;;;5030578;28;20454;-84
2023/09/27 12:33:38;;;;;;;10.23;4.20;;;;;;;;;;5029521;28;20447;-83
2023/09/27 12:36:07;;;;;;;4.63;4.20;;;;;;;;;;5021046;28;20486;-84
2023/09/27 12:38:34;;;;;;;7.00;4.23;;;;;;;;;;5040839;28;20873;-83
2023/09/27 12:41:03;;;;;;;8.70;3.80;;;;;;;;;;5039628;28;20937;-84
2023/09/27 12:43:30;;;;;;;5.30;4.23;;;;;;;;;;5021207;28;20532;-84
2023/09/27 12:45:58;;;;;;;6.07;5.00;;;;;;;;;;5030081;28;20516;-86
2023/09/27 12:48:25;;;;;;;5.93;4.13;;;;;;;;;;5033305;28;20454;-86
2023/09/27 12:50:52;;;;;;;7.13;4.20;;;;;;;;;;5026271;28;20483;-86
2023/09/27 12:53:21;;;;;;;5.73;4.13;;;;;;;;;;5017504;28;20451;-84
2023/09/27 12:55:48;;;;;;;6.23;4.20;;;;;;;;;;5028812;28;20483;-84
2023/09/27 12:58:16;;;;;;;7.47;4.27;;;;;;;;;;5028793;28;20810;-84
2023/09/27 13:00:43;;;;;;;7.47;3.70;;;;;;;;;;5025273;28;20504;-84
2023/09/27 13:03:10;;;;;;;4.50;3.80;;;;;;;;;;5020223;28;20490;-85
2023/09/27 13:05:38;;;;;;;7.10;3.97;;;;;;;;;;5019682;28;20471;-84
2023/09/27 13:08:06;;;;;;;6.90;4.50;;;;;;;;;;5021433;28;20447;-84
2023/09/27 13:10:35;;;;;;;9.43;4.30;;;;;;;;;;5039588;28;20489;-84
2023/09/27 13:13:02;;;;;;;6.20;3.87;;;;;;;;;;5023699;28;20522;-85
2023/09/27 13:15:31;;;;;;;4.80;3.20;;;;;;;;;;5027319;28;20459;-84
2023/09/27 13:17:59;;;;;;;6.63;4.50;;;;;;;;;;5020255;28;20435;-84
2023/09/27 13:20:26;;;;;;;8.97;4.33;;;;;;;;;;5019368;28;20862;-85
2023/09/27 13:22:53;;;;;;;8.80;4.40;;;;;;;;;;5019947;28;20438;-85
2023/09/27 13:25:21;;;;;;;8.10;4.17;;;;;;;;;;5018680;28;20471;-85
2023/09/27 13:27:49;;;;;;;5.80;3.77;;;;;;;;;;5020032;28;20455;-85
2023/09/27 13:30:17;;;;;;;6.83;4.87;;;;;;;;;;5025893;28;20532;-85
2023/09/27 13:32:44;;;;;;;7.07;4.40;;;;;;;;;;5019156;28;20459;-85
2023/09/27 13:35:12;;;;;;;6.03;3.30;;;;;;;;;;5018970;28;20501;-85
2023/09/27 13:37:39;;;;;;;5.47;3.23;;;;;;;;;;5018827;28;20467;-85
2023/09/27 13:40:12;;;;;;;13.70;5.23;;;;;;;;;;5018320;28;20447;-84
2023/09/27 13:42:40;;;;;;;6.63;4.73;;;;;;;;;;5018656;28;20450;-85
2023/09/27 13:45:10;;;;;;;7.67;4.47;;;;;;;;;;5035188;28;20478;-86
2023/09/27 13:47:37;;;;;;;6.63;3.70;;;;;;;;;;5051476;28;20450;-85
2023/09/27 13:50:05;;;;;;;7.27;4.83;;;;;;;;;;5026645;28;20537;-85
2023/09/27 13:52:33;;;;;;;8.53;3.53;;;;;;;;;;5032278;28;20456;-84
2023/09/27 13:55:00;;;;;;;5.43;3.60;;;;;;;;;;5022166;28;20502;-85
2023/09/27 13:57:28;;;;;;;5.77;4.13;;;;;;;;;;5026950;28;20477;-85
2023/09/27 13:59:55;;;;;;;4.13;3.10;;;;;;;;;;5018202;28;20511;-85
2023/09/27 14:02:24;;;;;;;6.23;3.70;;;;;;;;;;5036694;28;20462;-85
2023/09/27 14:04:53;;;;;;;6.20;4.13;;;;;;;;;;5021440;28;20459;-85
2023/09/27 14:07:20;;;;;;;10.13;3.73;;;;;;;;;;5028889;28;20454;-85
2023/09/27 14:09:48;;;;;;;7.23;4.07;;;;;;;;;;5029500;28;20483;-85
2023/09/27 14:12:15;;;;;;;4.17;3.77;;;;;;;;;;5026775;28;21022;-85
2023/09/27 14:14:44;;;;;;;7.10;4.40;;;;;;;;;;5022857;28;20853;-85
2023/09/27 14:17:11;;;;;;;6.00;3.67;;;;;;;;;;5027555;28;20445;-85
2023/09/27 14:19:40;;;;;;;5.53;3.60;;;;;;;;;;5038373;28;20439;-85
2023/09/27 14:22:07;;;;;;;6.80;3.90;;;;;;;;;;5037964;28;20489;-85
2023/09/27 14:24:34;;;;;;;9.07;4.03;;;;;;;;;;5017532;28;20479;-85
2023/09/27 14:27:02;;;;;;;10.30;4.03;;;;;;;;;;5027484;28;20839;-85
2023/09/27 14:29:30;;;;;;;5.77;3.80;;;;;;;;;;5026628;28;20443;-85
2023/09/27 14:31:57;;;;;;;7.77;3.47;;;;;;;;;;5025099;28;20520;-85
2023/09/27 14:34:24;;;;;;;7.47;3.70;;;;;;;;;;5037824;28;20930;-85
2023/09/27 14:36:53;;;;;;;11.30;4.33;;;;;;;;;;5037415;28;20508;-85
2023/09/27 14:39:21;;;;;;;6.13;3.97;;;;;;;;;;5034268;28;20561;-85
2023/09/27 14:41:48;;;;;;;7.67;4.40;;;;;;;;;;5023337;28;20935;-85
2023/09/27 14:44:15;;;;;;;8.83;4.43;;;;;;;;;;5019803;28;21014;-85
2023/09/27 14:46:43;;;;;;;6.40;3.80;;;;;;;;;;5035415;28;20458;-85
2023/09/27 14:49:14;;;;;;;8.97;4.40;;;;;;;;;;5026356;28;20493;-85